Medford, WI

10:16 PM CDT on September 21, 2014 (GMT -0500)
Taylor County | Change Station
CLOSE
Current Station
Airport
Location: Medford,
Elevation: 1470 ft
Nearby Weather Stations

Elev 1470 ft 45.10 °N, 90.30 °W | Updated 21 minutes ago

Clear
Clear
39 °F
Feels Like 39 °F
N
0
Wind Variable Wind from North

Today
High -- | Low -- °F
--% Chance of Precip.
Yesterday
High -- | Low -- °F
Precip. -- in
6:47 AM 7:00 PM
Waning Crescent, 4% visible
Pressure 30.18 in
Visibility 10.0 miles
Clouds Clear
Dew Point 39 °F
Humidity 99%
Rainfall 0.28 in
Snow Depth Not available.
UV 0 out of 12
Pollen 2.10 out of 12
Air Quality Not available.
Flu Activity Not available.
METAR KMDZ 220255Z AUTO 00000KT 10SM CLR 04/04 A3018 RMK AO2 T00380037

More Conditions Fewer Conditions

Pressure 30.18 in
Visibility 10.0 miles
Clouds Clear
Dew Point 39 °F
Humidity 99%
Rainfall 0.28 in
Snow Depth Not available.
UV 0 out of 12
Pollen 2.10 out of 12
Air Quality Not available.
Flu Activity Not available.
METAR KMDZ 220255Z AUTO 00000KT 10SM CLR 04/04 A3018 RMK AO2 T00380037

More Conditions Fewer Conditions

10-Day Weather Forecast

Almanac

Astronomy

Sep. 21, 2014 Rise Set
Actual Time 6:47 AM CDT 7:00 PM CDT
Civil Twilight 6:17 AM CDT 7:30 PM CDT
Nautical Twilight 5:43 AM CDT 8:04 PM CDT
Astronomical Twilight 5:07 AM CDT 8:40 PM CDT
Moon 4:15 AM CDT (9/21) 5:41 PM CDT (9/21)
Length of Visible Light 13h 12m
Length of Day
12h 13m
Tomorrow will be 3m 7s shorter.
Waning Crescent, 4% of the Moon is Illuminated
Today
Waning Crescent
Sep 24
New
Oct 1
First Quarter
Oct 8
Full
Oct 15
Last Quarter

Today's Extremes

State Highs State Lows

Community

WunderPhotos

Upload Photos

1,755,371 photos uploaded!

WunderBlogs® & News

Nearby

Snow Depth

Station Depth Elevation
No new snow has been reported.

Earthquake Activity

City Distance Mag. Time & Date
No recent earthquake activity has been reported nearby.
Minimum magnitude displayed is 2.5.

Coastal Water Temperatures

Place Temperature
No Stations Reporting

Nearby Weather Stations